sensor_id;sensor_type;location;lat;lon;timestamp;P1;durP1;ratioP1;P2;durP2;ratioP2
18857;SDS011;9558;50.178;8.370;2023-08-21T00:00:32;7.88;;;3.58;;
18857;SDS011;9558;50.178;8.370;2023-08-21T00:03:19;8.45;;;3.03;;
18857;SDS011;9558;50.178;8.370;2023-08-21T00:06:07;4.60;;;3.25;;
18857;SDS011;9558;50.178;8.370;2023-08-21T00:08:54;5.18;;;3.05;;
18857;SDS011;9558;50.178;8.370;2023-08-21T00:11:41;5.00;;;3.47;;
18857;SDS011;9558;50.178;8.370;2023-08-21T00:14:27;5.82;;;3.13;;
18857;SDS011;9558;50.178;8.370;2023-08-21T00:17:14;6.18;;;3.42;;
18857;SDS011;9558;50.178;8.370;2023-08-21T00:20:01;5.47;;;3.30;;
18857;SDS011;9558;50.178;8.370;2023-08-21T00:22:49;8.20;;;3.67;;
18857;SDS011;9558;50.178;8.370;2023-08-21T00:25:36;5.68;;;3.50;;
18857;SDS011;9558;50.178;8.370;2023-08-21T00:28:23;7.15;;;3.60;;
18857;SDS011;9558;50.178;8.370;2023-08-21T00:31:10;8.05;;;3.63;;
18857;SDS011;9558;50.178;8.370;2023-08-21T00:33:56;9.10;;;3.70;;
18857;SDS011;9558;50.178;8.370;2023-08-21T00:36:43;8.18;;;3.47;;
18857;SDS011;9558;50.178;8.370;2023-08-21T00:39:31;5.55;;;3.65;;
18857;SDS011;9558;50.178;8.370;2023-08-21T00:42:18;8.00;;;3.80;;
18857;SDS011;9558;50.178;8.370;2023-08-21T00:45:05;12.38;;;3.80;;
18857;SDS011;9558;50.178;8.370;2023-08-21T00:47:53;6.85;;;4.03;;
18857;SDS011;9558;50.178;8.370;2023-08-21T00:50:40;9.38;;;3.30;;
18857;SDS011;9558;50.178;8.370;2023-08-21T00:53:28;6.88;;;3.88;;
18857;SDS011;9558;50.178;8.370;2023-08-21T00:56:16;7.53;;;4.28;;
18857;SDS011;9558;50.178;8.370;2023-08-21T00:59:03;6.80;;;3.95;;
18857;SDS011;9558;50.178;8.370;2023-08-21T01:01:50;8.02;;;4.28;;
18857;SDS011;9558;50.178;8.370;2023-08-21T01:04:36;8.02;;;3.58;;
18857;SDS011;9558;50.178;8.370;2023-08-21T01:07:23;10.60;;;3.83;;
18857;SDS011;9558;50.178;8.370;2023-08-21T01:10:12;6.40;;;3.83;;
18857;SDS011;9558;50.178;8.370;2023-08-21T01:13:09;6.65;;;4.20;;
18857;SDS011;9558;50.178;8.370;2023-08-21T01:16:05;7.00;;;3.30;;
18857;SDS011;9558;50.178;8.370;2023-08-21T01:18:53;7.82;;;3.95;;
18857;SDS011;9558;50.178;8.370;2023-08-21T01:21:42;8.48;;;4.00;;
18857;SDS011;9558;50.178;8.370;2023-08-21T01:24:30;9.75;;;4.45;;
18857;SDS011;9558;50.178;8.370;2023-08-21T01:27:17;8.27;;;3.80;;
18857;SDS011;9558;50.178;8.370;2023-08-21T01:30:07;6.50;;;3.40;;
18857;SDS011;9558;50.178;8.370;2023-08-21T01:32:58;7.65;;;4.35;;
18857;SDS011;9558;50.178;8.370;2023-08-21T01:35:50;6.40;;;3.97;;
18857;SDS011;9558;50.178;8.370;2023-08-21T01:38:38;10.07;;;4.38;;
18857;SDS011;9558;50.178;8.370;2023-08-21T01:41:26;10.15;;;4.25;;
18857;SDS011;9558;50.178;8.370;2023-08-21T01:44:13;11.05;;;4.57;;
18857;SDS011;9558;50.178;8.370;2023-08-21T01:47:03;9.60;;;4.72;;
18857;SDS011;9558;50.178;8.370;2023-08-21T01:49:52;6.15;;;4.15;;
18857;SDS011;9558;50.178;8.370;2023-08-21T01:52:39;10.02;;;4.30;;
18857;SDS011;9558;50.178;8.370;2023-08-21T01:55:26;7.00;;;4.05;;
18857;SDS011;9558;50.178;8.370;2023-08-21T01:58:14;8.70;;;4.32;;
18857;SDS011;9558;50.178;8.370;2023-08-21T02:01:01;9.77;;;4.28;;
18857;SDS011;9558;50.178;8.370;2023-08-21T02:03:50;9.80;;;4.55;;
18857;SDS011;9558;50.178;8.370;2023-08-21T02:06:39;9.55;;;4.68;;
18857;SDS011;9558;50.178;8.370;2023-08-21T02:09:26;7.85;;;4.63;;
18857;SDS011;9558;50.178;8.370;2023-08-21T02:12:13;9.63;;;5.15;;
18857;SDS011;9558;50.178;8.370;2023-08-21T02:15:01;7.57;;;4.43;;
18857;SDS011;9558;50.178;8.370;2023-08-21T02:17:48;7.00;;;4.43;;
18857;SDS011;9558;50.178;8.370;2023-08-21T02:20:35;11.80;;;4.22;;
18857;SDS011;9558;50.178;8.370;2023-08-21T02:23:21;6.57;;;4.40;;
18857;SDS011;9558;50.178;8.370;2023-08-21T02:26:09;10.20;;;4.53;;
18857;SDS011;9558;50.178;8.370;2023-08-21T02:28:56;15.20;;;4.60;;
18857;SDS011;9558;50.178;8.370;2023-08-21T02:31:44;9.15;;;4.63;;
18857;SDS011;9558;50.178;8.370;2023-08-21T02:34:31;6.70;;;4.18;;
18857;SDS011;9558;50.178;8.370;2023-08-21T02:37:18;6.57;;;4.45;;
18857;SDS011;9558;50.178;8.370;2023-08-21T02:40:05;7.75;;;4.88;;
18857;SDS011;9558;50.178;8.370;2023-08-21T02:42:54;7.43;;;4.55;;
18857;SDS011;9558;50.178;8.370;2023-08-21T02:45:41;11.73;;;4.45;;
18857;SDS011;9558;50.178;8.370;2023-08-21T02:48:29;9.00;;;5.43;;
18857;SDS011;9558;50.178;8.370;2023-08-21T02:51:16;8.38;;;5.22;;
18857;SDS011;9558;50.178;8.370;2023-08-21T02:54:02;9.82;;;4.70;;
18857;SDS011;9558;50.178;8.370;2023-08-21T02:56:49;10.07;;;4.80;;
18857;SDS011;9558;50.178;8.370;2023-08-21T02:59:36;9.32;;;4.65;;
18857;SDS011;9558;50.178;8.370;2023-08-21T03:02:22;10.43;;;4.53;;
18857;SDS011;9558;50.178;8.370;2023-08-21T03:05:11;9.25;;;5.03;;
18857;SDS011;9558;50.178;8.370;2023-08-21T03:07:58;9.43;;;5.50;;
18857;SDS011;9558;50.178;8.370;2023-08-21T03:10:45;9.13;;;4.88;;
18857;SDS011;9558;50.178;8.370;2023-08-21T03:13:32;9.07;;;4.95;;
18857;SDS011;9558;50.178;8.370;2023-08-21T03:16:18;12.55;;;5.22;;
18857;SDS011;9558;50.178;8.370;2023-08-21T03:19:05;9.05;;;5.28;;
18857;SDS011;9558;50.178;8.370;2023-08-21T03:21:53;13.30;;;5.68;;
18857;SDS011;9558;50.178;8.370;2023-08-21T03:24:55;10.10;;;5.90;;
18857;SDS011;9558;50.178;8.370;2023-08-21T03:27:42;9.75;;;5.03;;
18857;SDS011;9558;50.178;8.370;2023-08-21T03:30:34;11.13;;;4.95;;
18857;SDS011;9558;50.178;8.370;2023-08-21T03:33:21;12.38;;;5.10;;
18857;SDS011;9558;50.178;8.370;2023-08-21T03:36:07;12.68;;;5.75;;
18857;SDS011;9558;50.178;8.370;2023-08-21T03:38:54;13.57;;;5.25;;
18857;SDS011;9558;50.178;8.370;2023-08-21T03:41:42;10.40;;;6.05;;
18857;SDS011;9558;50.178;8.370;2023-08-21T03:44:29;7.38;;;5.18;;
18857;SDS011;9558;50.178;8.370;2023-08-21T03:47:16;12.18;;;5.78;;
18857;SDS011;9558;50.178;8.370;2023-08-21T03:50:03;10.07;;;5.57;;
18857;SDS011;9558;50.178;8.370;2023-08-21T03:52:50;9.70;;;5.60;;
18857;SDS011;9558;50.178;8.370;2023-08-21T03:55:36;8.68;;;5.38;;
18857;SDS011;9558;50.178;8.370;2023-08-21T03:58:24;9.38;;;5.05;;
18857;SDS011;9558;50.178;8.370;2023-08-21T04:01:12;9.98;;;5.32;;
18857;SDS011;9558;50.178;8.370;2023-08-21T04:03:58;7.93;;;5.20;;
18857;SDS011;9558;50.178;8.370;2023-08-21T04:06:45;9.93;;;5.38;;
18857;SDS011;9558;50.178;8.370;2023-08-21T04:09:32;12.48;;;5.70;;
18857;SDS011;9558;50.178;8.370;2023-08-21T04:12:19;8.77;;;5.03;;
18857;SDS011;9558;50.178;8.370;2023-08-21T04:15:07;8.95;;;5.32;;
18857;SDS011;9558;50.178;8.370;2023-08-21T04:17:55;10.88;;;5.80;;
18857;SDS011;9558;50.178;8.370;2023-08-21T04:20:42;8.25;;;5.20;;
18857;SDS011;9558;50.178;8.370;2023-08-21T04:23:28;10.60;;;5.50;;
18857;SDS011;9558;50.178;8.370;2023-08-21T04:26:15;13.68;;;6.43;;
18857;SDS011;9558;50.178;8.370;2023-08-21T04:29:02;9.50;;;5.97;;
18857;SDS011;9558;50.178;8.370;2023-08-21T04:31:50;9.27;;;5.60;;
18857;SDS011;9558;50.178;8.370;2023-08-21T04:34:37;12.90;;;5.82;;
18857;SDS011;9558;50.178;8.370;2023-08-21T04:37:24;12.63;;;5.60;;
18857;SDS011;9558;50.178;8.370;2023-08-21T04:40:11;8.20;;;5.50;;
18857;SDS011;9558;50.178;8.370;2023-08-21T04:42:58;9.85;;;5.15;;
18857;SDS011;9558;50.178;8.370;2023-08-21T04:45:48;9.18;;;5.57;;
18857;SDS011;9558;50.178;8.370;2023-08-21T04:48:37;9.30;;;5.75;;
18857;SDS011;9558;50.178;8.370;2023-08-21T04:51:24;6.63;;;4.47;;
18857;SDS011;9558;50.178;8.370;2023-08-21T04:54:10;14.23;;;5.45;;
18857;SDS011;9558;50.178;8.370;2023-08-21T04:56:57;9.43;;;5.07;;
18857;SDS011;9558;50.178;8.370;2023-08-21T04:59:44;8.43;;;5.13;;
18857;SDS011;9558;50.178;8.370;2023-08-21T05:02:31;9.25;;;5.25;;
18857;SDS011;9558;50.178;8.370;2023-08-21T05:05:19;10.32;;;5.60;;
18857;SDS011;9558;50.178;8.370;2023-08-21T05:08:06;13.30;;;5.25;;
18857;SDS011;9558;50.178;8.370;2023-08-21T05:10:56;7.47;;;5.07;;
18857;SDS011;9558;50.178;8.370;2023-08-21T05:13:43;9.55;;;5.50;;
18857;SDS011;9558;50.178;8.370;2023-08-21T05:16:30;8.70;;;5.55;;
18857;SDS011;9558;50.178;8.370;2023-08-21T05:19:16;9.07;;;5.60;;
18857;SDS011;9558;50.178;8.370;2023-08-21T05:22:05;10.27;;;5.70;;
18857;SDS011;9558;50.178;8.370;2023-08-21T05:24:52;10.55;;;5.03;;
18857;SDS011;9558;50.178;8.370;2023-08-21T05:27:38;8.15;;;4.80;;
18857;SDS011;9558;50.178;8.370;2023-08-21T05:30:25;9.95;;;5.63;;
18857;SDS011;9558;50.178;8.370;2023-08-21T05:33:12;7.90;;;5.10;;
18857;SDS011;9558;50.178;8.370;2023-08-21T05:35:59;8.50;;;5.28;;
18857;SDS011;9558;50.178;8.370;2023-08-21T05:38:47;11.68;;;6.18;;
18857;SDS011;9558;50.178;8.370;2023-08-21T05:41:34;11.30;;;5.70;;
18857;SDS011;9558;50.178;8.370;2023-08-21T05:44:20;14.73;;;5.97;;
18857;SDS011;9558;50.178;8.370;2023-08-21T05:47:07;8.65;;;5.65;;
18857;SDS011;9558;50.178;8.370;2023-08-21T05:49:54;11.57;;;5.60;;
18857;SDS011;9558;50.178;8.370;2023-08-21T05:52:41;13.70;;;5.40;;
18857;SDS011;9558;50.178;8.370;2023-08-21T05:55:29;8.48;;;5.10;;
18857;SDS011;9558;50.178;8.370;2023-08-21T05:58:16;9.52;;;5.75;;
18857;SDS011;9558;50.178;8.370;2023-08-21T06:01:03;9.00;;;5.63;;
18857;SDS011;9558;50.178;8.370;2023-08-21T06:03:49;11.00;;;5.57;;
18857;SDS011;9558;50.178;8.370;2023-08-21T06:06:36;10.25;;;6.00;;
18857;SDS011;9558;50.178;8.370;2023-08-21T06:09:23;8.57;;;5.20;;
18857;SDS011;9558;50.178;8.370;2023-08-21T06:12:11;11.00;;;5.63;;
18857;SDS011;9558;50.178;8.370;2023-08-21T06:14:58;10.20;;;6.15;;
18857;SDS011;9558;50.178;8.370;2023-08-21T06:17:45;9.80;;;5.82;;
18857;SDS011;9558;50.178;8.370;2023-08-21T06:20:32;9.18;;;5.95;;
18857;SDS011;9558;50.178;8.370;2023-08-21T06:23:19;8.95;;;5.93;;
18857;SDS011;9558;50.178;8.370;2023-08-21T06:26:06;8.45;;;5.20;;
18857;SDS011;9558;50.178;8.370;2023-08-21T06:28:54;9.50;;;6.25;;
18857;SDS011;9558;50.178;8.370;2023-08-21T06:31:42;9.75;;;6.35;;
18857;SDS011;9558;50.178;8.370;2023-08-21T06:34:29;14.13;;;6.60;;
18857;SDS011;9558;50.178;8.370;2023-08-21T06:37:16;10.55;;;6.60;;
18857;SDS011;9558;50.178;8.370;2023-08-21T06:40:03;11.48;;;6.45;;
18857;SDS011;9558;50.178;8.370;2023-08-21T06:42:50;10.23;;;5.85;;
18857;SDS011;9558;50.178;8.370;2023-08-21T06:45:39;10.48;;;6.10;;
18857;SDS011;9558;50.178;8.370;2023-08-21T06:48:26;9.35;;;5.88;;
18857;SDS011;9558;50.178;8.370;2023-08-21T06:51:13;12.82;;;5.65;;
18857;SDS011;9558;50.178;8.370;2023-08-21T06:54:00;8.80;;;5.55;;
18857;SDS011;9558;50.178;8.370;2023-08-21T06:56:46;9.10;;;4.90;;
18857;SDS011;9558;50.178;8.370;2023-08-21T06:59:33;8.05;;;4.93;;
18857;SDS011;9558;50.178;8.370;2023-08-21T07:02:22;8.93;;;4.35;;
18857;SDS011;9558;50.178;8.370;2023-08-21T07:05:09;9.10;;;5.03;;
18857;SDS011;9558;50.178;8.370;2023-08-21T07:07:56;5.75;;;4.35;;
18857;SDS011;9558;50.178;8.370;2023-08-21T07:10:43;8.68;;;4.30;;
18857;SDS011;9558;50.178;8.370;2023-08-21T07:13:30;6.32;;;4.18;;
18857;SDS011;9558;50.178;8.370;2023-08-21T07:16:17;4.07;;;3.47;;
18857;SDS011;9558;50.178;8.370;2023-08-21T07:19:05;5.35;;;4.20;;
18857;SDS011;9558;50.178;8.370;2023-08-21T07:21:52;6.25;;;4.03;;
18857;SDS011;9558;50.178;8.370;2023-08-21T07:24:39;5.88;;;4.10;;
18857;SDS011;9558;50.178;8.370;2023-08-21T07:27:25;7.65;;;4.05;;
18857;SDS011;9558;50.178;8.370;2023-08-21T07:30:12;4.43;;;3.97;;
18857;SDS011;9558;50.178;8.370;2023-08-21T07:32:59;7.40;;;3.78;;
18857;SDS011;9558;50.178;8.370;2023-08-21T07:35:48;4.88;;;3.67;;
18857;SDS011;9558;50.178;8.370;2023-08-21T07:38:43;4.35;;;3.33;;
18857;SDS011;9558;50.178;8.370;2023-08-21T07:41:31;7.72;;;4.28;;
18857;SDS011;9558;50.178;8.370;2023-08-21T07:44:18;5.43;;;3.38;;
18857;SDS011;9558;50.178;8.370;2023-08-21T07:47:05;7.57;;;3.63;;
18857;SDS011;9558;50.178;8.370;2023-08-21T07:49:52;7.07;;;3.30;;
18857;SDS011;9558;50.178;8.370;2023-08-21T07:52:40;4.05;;;3.30;;
18857;SDS011;9558;50.178;8.370;2023-08-21T07:55:27;3.72;;;3.33;;
18857;SDS011;9558;50.178;8.370;2023-08-21T07:58:14;6.50;;;3.63;;
18857;SDS011;9558;50.178;8.370;2023-08-21T08:01:01;4.50;;;3.47;;
18857;SDS011;9558;50.178;8.370;2023-08-21T08:03:50;4.78;;;3.33;;
18857;SDS011;9558;50.178;8.370;2023-08-21T08:06:36;4.35;;;3.50;;
18857;SDS011;9558;50.178;8.370;2023-08-21T08:09:24;3.67;;;3.00;;
18857;SDS011;9558;50.178;8.370;2023-08-21T08:12:11;5.60;;;3.20;;
18857;SDS011;9558;50.178;8.370;2023-08-21T08:14:59;8.25;;;2.90;;
18857;SDS011;9558;50.178;8.370;2023-08-21T08:17:45;4.30;;;2.90;;
18857;SDS011;9558;50.178;8.370;2023-08-21T08:20:32;4.13;;;3.22;;
18857;SDS011;9558;50.178;8.370;2023-08-21T08:23:19;3.67;;;3.03;;
18857;SDS011;9558;50.178;8.370;2023-08-21T08:26:10;5.25;;;3.15;;
18857;SDS011;9558;50.178;8.370;2023-08-21T08:28:56;6.28;;;3.13;;
18857;SDS011;9558;50.178;8.370;2023-08-21T08:31:43;3.65;;;3.08;;
18857;SDS011;9558;50.178;8.370;2023-08-21T08:34:30;5.63;;;3.13;;
18857;SDS011;9558;50.178;8.370;2023-08-21T08:37:17;3.50;;;2.85;;
18857;SDS011;9558;50.178;8.370;2023-08-21T08:40:04;4.30;;;2.90;;
18857;SDS011;9558;50.178;8.370;2023-08-21T08:42:53;3.05;;;2.78;;
18857;SDS011;9558;50.178;8.370;2023-08-21T08:45:41;3.45;;;2.78;;
18857;SDS011;9558;50.178;8.370;2023-08-21T08:48:28;4.65;;;3.00;;
18857;SDS011;9558;50.178;8.370;2023-08-21T08:51:14;7.38;;;3.58;;
18857;SDS011;9558;50.178;8.370;2023-08-21T08:54:01;3.33;;;3.03;;
18857;SDS011;9558;50.178;8.370;2023-08-21T08:56:49;3.10;;;2.80;;
18857;SDS011;9558;50.178;8.370;2023-08-21T08:59:37;7.03;;;3.00;;
18857;SDS011;9558;50.178;8.370;2023-08-21T09:02:24;3.65;;;3.08;;
18857;SDS011;9558;50.178;8.370;2023-08-21T09:05:11;6.00;;;3.47;;
18857;SDS011;9558;50.178;8.370;2023-08-21T09:08:02;4.75;;;3.38;;
18857;SDS011;9558;50.178;8.370;2023-08-21T09:13:36;5.40;;;3.00;;
18857;SDS011;9558;50.178;8.370;2023-08-21T09:16:25;2.88;;;2.58;;
18857;SDS011;9558;50.178;8.370;2023-08-21T09:19:12;2.83;;;2.60;;
18857;SDS011;9558;50.178;8.370;2023-08-21T09:22:08;2.90;;;2.58;;
18857;SDS011;9558;50.178;8.370;2023-08-21T09:25:02;3.33;;;2.50;;
18857;SDS011;9558;50.178;8.370;2023-08-21T09:27:52;4.72;;;2.42;;
18857;SDS011;9558;50.178;8.370;2023-08-21T09:30:43;3.63;;;2.40;;
18857;SDS011;9558;50.178;8.370;2023-08-21T09:33:32;4.72;;;2.50;;
18857;SDS011;9558;50.178;8.370;2023-08-21T09:36:20;2.90;;;2.50;;
18857;SDS011;9558;50.178;8.370;2023-08-21T09:39:07;3.08;;;2.30;;
18857;SDS011;9558;50.178;8.370;2023-08-21T09:42:04;3.78;;;2.72;;
18857;SDS011;9558;50.178;8.370;2023-08-21T09:44:52;3.53;;;2.53;;
18857;SDS011;9558;50.178;8.370;2023-08-21T09:47:39;5.18;;;3.17;;
18857;SDS011;9558;50.178;8.370;2023-08-21T09:50:27;4.28;;;2.90;;
18857;SDS011;9558;50.178;8.370;2023-08-21T09:53:15;3.53;;;2.10;;
18857;SDS011;9558;50.178;8.370;2023-08-21T09:56:02;2.33;;;1.90;;
18857;SDS011;9558;50.178;8.370;2023-08-21T09:58:50;4.20;;;1.67;;
18857;SDS011;9558;50.178;8.370;2023-08-21T10:01:38;1.60;;;1.50;;
18857;SDS011;9558;50.178;8.370;2023-08-21T10:04:25;1.92;;;1.30;;
18857;SDS011;9558;50.178;8.370;2023-08-21T10:07:16;4.40;;;1.73;;
18857;SDS011;9558;50.178;8.370;2023-08-21T10:10:07;3.25;;;1.40;;
18857;SDS011;9558;50.178;8.370;2023-08-21T10:12:55;4.50;;;1.30;;
18857;SDS011;9558;50.178;8.370;2023-08-21T10:15:42;3.30;;;1.92;;
18857;SDS011;9558;50.178;8.370;2023-08-21T10:18:31;2.67;;;1.92;;
18857;SDS011;9558;50.178;8.370;2023-08-21T10:21:19;2.50;;;2.00;;
18857;SDS011;9558;50.178;8.370;2023-08-21T10:24:11;2.10;;;1.88;;
18857;SDS011;9558;50.178;8.370;2023-08-21T10:26:58;2.08;;;1.83;;
18857;SDS011;9558;50.178;8.370;2023-08-21T10:29:46;4.20;;;2.00;;
18857;SDS011;9558;50.178;8.370;2023-08-21T10:32:44;2.33;;;2.00;;
18857;SDS011;9558;50.178;8.370;2023-08-21T10:35:31;3.40;;;2.10;;
18857;SDS011;9558;50.178;8.370;2023-08-21T10:38:20;2.33;;;2.00;;
18857;SDS011;9558;50.178;8.370;2023-08-21T10:41:08;5.75;;;1.80;;
18857;SDS011;9558;50.178;8.370;2023-08-21T10:43:56;1.73;;;1.55;;
18857;SDS011;9558;50.178;8.370;2023-08-21T10:46:49;3.40;;;1.70;;
18857;SDS011;9558;50.178;8.370;2023-08-21T10:49:36;1.80;;;1.70;;
18857;SDS011;9558;50.178;8.370;2023-08-21T10:52:23;2.10;;;1.88;;
18857;SDS011;9558;50.178;8.370;2023-08-21T10:55:12;3.03;;;1.95;;
18857;SDS011;9558;50.178;8.370;2023-08-21T10:58:01;1.80;;;1.60;;
18857;SDS011;9558;50.178;8.370;2023-08-21T11:00:55;2.20;;;1.95;;
18857;SDS011;9558;50.178;8.370;2023-08-21T11:03:45;2.15;;;1.77;;
18857;SDS011;9558;50.178;8.370;2023-08-21T11:06:32;2.13;;;1.60;;
18857;SDS011;9558;50.178;8.370;2023-08-21T11:09:19;3.47;;;1.58;;
18857;SDS011;9558;50.178;8.370;2023-08-21T11:12:07;3.42;;;2.15;;
18857;SDS011;9558;50.178;8.370;2023-08-21T11:14:56;2.67;;;1.80;;
18857;SDS011;9558;50.178;8.370;2023-08-21T11:17:50;1.88;;;1.65;;
18857;SDS011;9558;50.178;8.370;2023-08-21T11:20:37;2.97;;;1.77;;
18857;SDS011;9558;50.178;8.370;2023-08-21T11:23:31;2.88;;;1.85;;
18857;SDS011;9558;50.178;8.370;2023-08-21T11:26:20;3.60;;;1.83;;
18857;SDS011;9558;50.178;8.370;2023-08-21T11:29:07;2.03;;;1.75;;
18857;SDS011;9558;50.178;8.370;2023-08-21T11:31:55;2.10;;;1.67;;
18857;SDS011;9558;50.178;8.370;2023-08-21T11:34:42;2.65;;;1.48;;
18857;SDS011;9558;50.178;8.370;2023-08-21T11:37:33;4.22;;;1.80;;
18857;SDS011;9558;50.178;8.370;2023-08-21T11:40:20;2.40;;;1.70;;
18857;SDS011;9558;50.178;8.370;2023-08-21T11:43:07;3.13;;;2.05;;
18857;SDS011;9558;50.178;8.370;2023-08-21T11:45:54;2.85;;;1.90;;
18857;SDS011;9558;50.178;8.370;2023-08-21T11:48:42;1.92;;;1.70;;
18857;SDS011;9558;50.178;8.370;2023-08-21T11:51:37;3.55;;;1.75;;
18857;SDS011;9558;50.178;8.370;2023-08-21T11:54:24;2.22;;;1.77;;
18857;SDS011;9558;50.178;8.370;2023-08-21T11:57:11;1.70;;;1.48;;
18857;SDS011;9558;50.178;8.370;2023-08-21T11:59:59;4.18;;;1.70;;
18857;SDS011;9558;50.178;8.370;2023-08-21T12:02:53;1.80;;;1.60;;
18857;SDS011;9558;50.178;8.370;2023-08-21T12:05:43;4.50;;;1.92;;
18857;SDS011;9558;50.178;8.370;2023-08-21T12:08:30;6.05;;;1.75;;
18857;SDS011;9558;50.178;8.370;2023-08-21T12:11:17;2.15;;;1.67;;
18857;SDS011;9558;50.178;8.370;2023-08-21T12:14:03;2.95;;;1.70;;
18857;SDS011;9558;50.178;8.370;2023-08-21T12:16:50;2.72;;;1.70;;
18857;SDS011;9558;50.178;8.370;2023-08-21T12:19:37;2.00;;;1.80;;
18857;SDS011;9558;50.178;8.370;2023-08-21T12:22:26;2.95;;;1.73;;
18857;SDS011;9558;50.178;8.370;2023-08-21T12:25:13;2.03;;;1.83;;
18857;SDS011;9558;50.178;8.370;2023-08-21T12:28:01;2.83;;;1.70;;
18857;SDS011;9558;50.178;8.370;2023-08-21T12:30:48;4.65;;;1.95;;
18857;SDS011;9558;50.178;8.370;2023-08-21T12:33:35;3.22;;;1.92;;
18857;SDS011;9558;50.178;8.370;2023-08-21T12:36:22;3.25;;;2.22;;
18857;SDS011;9558;50.178;8.370;2023-08-21T12:39:10;3.40;;;1.50;;
18857;SDS011;9558;50.178;8.370;2023-08-21T12:41:57;2.70;;;1.55;;
18857;SDS011;9558;50.178;8.370;2023-08-21T12:44:44;4.30;;;1.60;;
18857;SDS011;9558;50.178;8.370;2023-08-21T12:47:30;2.60;;;1.88;;
18857;SDS011;9558;50.178;8.370;2023-08-21T12:50:18;3.97;;;1.92;;
18857;SDS011;9558;50.178;8.370;2023-08-21T12:53:05;8.57;;;2.33;;
18857;SDS011;9558;50.178;8.370;2023-08-21T12:55:53;3.33;;;2.38;;
18857;SDS011;9558;50.178;8.370;2023-08-21T12:58:43;2.78;;;1.92;;
18857;SDS011;9558;50.178;8.370;2023-08-21T13:01:30;3.78;;;2.15;;
18857;SDS011;9558;50.178;8.370;2023-08-21T13:04:19;2.60;;;2.40;;
18857;SDS011;9558;50.178;8.370;2023-08-21T13:07:06;4.85;;;2.08;;
18857;SDS011;9558;50.178;8.370;2023-08-21T13:09:53;4.05;;;2.35;;
18857;SDS011;9558;50.178;8.370;2023-08-21T13:12:41;2.45;;;1.98;;
18857;SDS011;9558;50.178;8.370;2023-08-21T13:15:29;2.67;;;1.90;;
18857;SDS011;9558;50.178;8.370;2023-08-21T13:18:15;5.38;;;3.13;;
18857;SDS011;9558;50.178;8.370;2023-08-21T13:21:02;2.80;;;2.30;;
18857;SDS011;9558;50.178;8.370;2023-08-21T13:23:49;3.90;;;2.40;;
18857;SDS011;9558;50.178;8.370;2023-08-21T13:26:36;4.28;;;2.25;;
18857;SDS011;9558;50.178;8.370;2023-08-21T13:29:24;3.63;;;2.30;;
18857;SDS011;9558;50.178;8.370;2023-08-21T13:32:11;3.05;;;2.17;;
18857;SDS011;9558;50.178;8.370;2023-08-21T13:34:58;3.28;;;2.28;;
18857;SDS011;9558;50.178;8.370;2023-08-21T13:37:44;3.97;;;2.17;;
18857;SDS011;9558;50.178;8.370;2023-08-21T13:40:31;2.53;;;2.28;;
18857;SDS011;9558;50.178;8.370;2023-08-21T13:43:18;2.85;;;2.45;;
18857;SDS011;9558;50.178;8.370;2023-08-21T13:46:06;2.63;;;1.85;;
18857;SDS011;9558;50.178;8.370;2023-08-21T13:48:53;2.38;;;1.70;;
18857;SDS011;9558;50.178;8.370;2023-08-21T13:51:40;2.28;;;1.75;;
18857;SDS011;9558;50.178;8.370;2023-08-21T13:54:27;2.20;;;1.80;;
18857;SDS011;9558;50.178;8.370;2023-08-21T13:57:14;2.78;;;1.70;;
18857;SDS011;9558;50.178;8.370;2023-08-21T14:00:02;5.55;;;1.90;;
18857;SDS011;9558;50.178;8.370;2023-08-21T14:02:54;2.88;;;1.60;;
18857;SDS011;9558;50.178;8.370;2023-08-21T14:05:40;2.38;;;1.60;;
18857;SDS011;9558;50.178;8.370;2023-08-21T14:08:27;1.40;;;1.30;;
18857;SDS011;9558;50.178;8.370;2023-08-21T14:11:15;2.83;;;1.48;;
18857;SDS011;9558;50.178;8.370;2023-08-21T14:14:02;1.98;;;1.60;;
18857;SDS011;9558;50.178;8.370;2023-08-21T14:16:48;1.70;;;1.45;;
18857;SDS011;9558;50.178;8.370;2023-08-21T14:19:36;5.78;;;1.77;;
18857;SDS011;9558;50.178;8.370;2023-08-21T14:22:23;2.40;;;1.73;;
18857;SDS011;9558;50.178;8.370;2023-08-21T14:25:10;3.42;;;1.58;;
18857;SDS011;9558;50.178;8.370;2023-08-21T14:27:57;3.40;;;1.55;;
18857;SDS011;9558;50.178;8.370;2023-08-21T14:30:44;2.00;;;1.50;;
18857;SDS011;9558;50.178;8.370;2023-08-21T14:33:32;2.17;;;1.58;;
18857;SDS011;9558;50.178;8.370;2023-08-21T14:36:20;1.85;;;1.58;;
18857;SDS011;9558;50.178;8.370;2023-08-21T14:39:07;2.35;;;1.40;;
18857;SDS011;9558;50.178;8.370;2023-08-21T14:41:56;1.40;;;1.17;;
18857;SDS011;9558;50.178;8.370;2023-08-21T14:44:43;1.75;;;1.15;;
18857;SDS011;9558;50.178;8.370;2023-08-21T14:47:29;1.30;;;1.13;;
18857;SDS011;9558;50.178;8.370;2023-08-21T14:50:17;2.05;;;1.40;;
18857;SDS011;9558;50.178;8.370;2023-08-21T14:53:06;1.45;;;1.20;;
18857;SDS011;9558;50.178;8.370;2023-08-21T14:55:52;2.42;;;1.30;;
18857;SDS011;9558;50.178;8.370;2023-08-21T14:58:39;3.53;;;1.40;;
18857;SDS011;9558;50.178;8.370;2023-08-21T15:01:28;2.05;;;1.40;;
18857;SDS011;9558;50.178;8.370;2023-08-21T15:04:15;1.52;;;1.30;;
18857;SDS011;9558;50.178;8.370;2023-08-21T15:07:02;1.77;;;1.17;;
18857;SDS011;9558;50.178;8.370;2023-08-21T15:09:50;2.58;;;1.30;;
18857;SDS011;9558;50.178;8.370;2023-08-21T15:12:37;1.40;;;1.20;;
18857;SDS011;9558;50.178;8.370;2023-08-21T15:15:24;4.85;;;1.52;;
18857;SDS011;9558;50.178;8.370;2023-08-21T15:18:11;1.92;;;1.15;;
18857;SDS011;9558;50.178;8.370;2023-08-21T15:20:58;1.40;;;1.30;;
18857;SDS011;9558;50.178;8.370;2023-08-21T15:23:45;1.38;;;1.20;;
18857;SDS011;9558;50.178;8.370;2023-08-21T15:26:33;1.48;;;1.30;;
18857;SDS011;9558;50.178;8.370;2023-08-21T15:29:20;2.22;;;1.40;;
18857;SDS011;9558;50.178;8.370;2023-08-21T15:32:08;1.30;;;1.20;;
18857;SDS011;9558;50.178;8.370;2023-08-21T15:34:55;1.40;;;1.30;;
18857;SDS011;9558;50.178;8.370;2023-08-21T15:37:41;2.05;;;1.30;;
18857;SDS011;9558;50.178;8.370;2023-08-21T15:40:30;2.97;;;1.38;;
18857;SDS011;9558;50.178;8.370;2023-08-21T15:43:18;1.27;;;1.15;;
18857;SDS011;9558;50.178;8.370;2023-08-21T15:46:05;1.23;;;1.10;;
18857;SDS011;9558;50.178;8.370;2023-08-21T15:48:52;2.15;;;1.20;;
18857;SDS011;9558;50.178;8.370;2023-08-21T15:51:39;3.90;;;1.42;;
18857;SDS011;9558;50.178;8.370;2023-08-21T15:54:30;2.17;;;1.48;;
18857;SDS011;9558;50.178;8.370;2023-08-21T15:57:18;1.42;;;1.20;;
18857;SDS011;9558;50.178;8.370;2023-08-21T16:00:07;2.58;;;1.25;;
18857;SDS011;9558;50.178;8.370;2023-08-21T16:02:54;2.03;;;1.20;;
18857;SDS011;9558;50.178;8.370;2023-08-21T16:05:41;3.63;;;1.33;;
18857;SDS011;9558;50.178;8.370;2023-08-21T16:08:28;2.53;;;1.27;;
18857;SDS011;9558;50.178;8.370;2023-08-21T16:11:15;1.30;;;1.20;;
18857;SDS011;9558;50.178;8.370;2023-08-21T16:14:02;4.80;;;1.50;;
18857;SDS011;9558;50.178;8.370;2023-08-21T16:16:54;2.63;;;1.50;;
18857;SDS011;9558;50.178;8.370;2023-08-21T16:19:41;3.65;;;1.33;;
18857;SDS011;9558;50.178;8.370;2023-08-21T16:22:28;1.98;;;1.50;;
18857;SDS011;9558;50.178;8.370;2023-08-21T16:25:16;1.95;;;1.50;;
18857;SDS011;9558;50.178;8.370;2023-08-21T16:28:03;2.03;;;1.73;;
18857;SDS011;9558;50.178;8.370;2023-08-21T16:30:50;6.18;;;1.70;;
18857;SDS011;9558;50.178;8.370;2023-08-21T16:33:38;5.25;;;1.58;;
18857;SDS011;9558;50.178;8.370;2023-08-21T16:36:25;4.55;;;1.70;;
18857;SDS011;9558;50.178;8.370;2023-08-21T16:39:11;5.40;;;1.92;;
18857;SDS011;9558;50.178;8.370;2023-08-21T16:41:58;2.55;;;1.83;;
18857;SDS011;9558;50.178;8.370;2023-08-21T16:44:45;3.00;;;1.70;;
18857;SDS011;9558;50.178;8.370;2023-08-21T16:47:32;2.42;;;1.70;;
18857;SDS011;9558;50.178;8.370;2023-08-21T16:50:21;2.30;;;1.70;;
18857;SDS011;9558;50.178;8.370;2023-08-21T16:53:08;2.38;;;1.70;;
18857;SDS011;9558;50.178;8.370;2023-08-21T16:55:54;2.78;;;1.60;;
18857;SDS011;9558;50.178;8.370;2023-08-21T16:58:43;2.35;;;1.90;;
18857;SDS011;9558;50.178;8.370;2023-08-21T17:01:29;2.47;;;1.60;;
18857;SDS011;9558;50.178;8.370;2023-08-21T17:04:16;2.35;;;1.88;;
18857;SDS011;9558;50.178;8.370;2023-08-21T17:07:06;4.20;;;2.00;;